sensor_id;sensor_type;location;lat;lon;timestamp;temperature;humidity
10419;DHT22;5256;48.728;9.140;2023-04-01T00:00:28;6.70;99.90
10419;DHT22;5256;48.728;9.140;2023-04-01T00:02:53;6.70;99.90
10419;DHT22;5256;48.728;9.140;2023-04-01T00:05:20;6.70;99.90
10419;DHT22;5256;48.728;9.140;2023-04-01T00:07:46;6.80;99.90
10419;DHT22;5256;48.728;9.140;2023-04-01T00:10:12;6.80;99.90
10419;DHT22;5256;48.728;9.140;2023-04-01T00:12:38;6.90;99.90
10419;DHT22;5256;48.728;9.140;2023-04-01T00:15:08;6.90;99.90
10419;DHT22;5256;48.728;9.140;2023-04-01T00:17:34;7.00;99.90
10419;DHT22;5256;48.728;9.140;2023-04-01T00:20:00;7.00;99.90
10419;DHT22;5256;48.728;9.140;2023-04-01T00:22:26;6.90;99.90
10419;DHT22;5256;48.728;9.140;2023-04-01T00:24:53;7.00;99.90
10419;DHT22;5256;48.728;9.140;2023-04-01T00:27:19;7.00;99.90
10419;DHT22;5256;48.728;9.140;2023-04-01T00:29:45;6.90;99.90
10419;DHT22;5256;48.728;9.140;2023-04-01T00:32:12;6.90;99.90
10419;DHT22;5256;48.728;9.140;2023-04-01T00:34:37;6.90;99.90
10419;DHT22;5256;48.728;9.140;2023-04-01T00:37:05;6.80;99.90
10419;DHT22;5256;48.728;9.140;2023-04-01T00:39:32;6.80;99.90
10419;DHT22;5256;48.728;9.140;2023-04-01T00:41:58;6.80;99.90
10419;DHT22;5256;48.728;9.140;2023-04-01T00:44:27;6.90;99.90
10419;DHT22;5256;48.728;9.140;2023-04-01T00:46:52;6.90;99.90
10419;DHT22;5256;48.728;9.140;2023-04-01T00:49:21;6.90;99.90
10419;DHT22;5256;48.728;9.140;2023-04-01T00:51:50;6.90;99.90
10419;DHT22;5256;48.728;9.140;2023-04-01T00:54:17;6.90;99.90
10419;DHT22;5256;48.728;9.140;2023-04-01T00:56:54;6.90;99.90
10419;DHT22;5256;48.728;9.140;2023-04-01T00:59:33;6.90;99.90
10419;DHT22;5256;48.728;9.140;2023-04-01T01:02:01;6.90;99.90
10419;DHT22;5256;48.728;9.140;2023-04-01T01:04:30;7.00;99.90
10419;DHT22;5256;48.728;9.140;2023-04-01T01:07:28;7.00;99.90
10419;DHT22;5256;48.728;9.140;2023-04-01T01:15:12;6.80;99.90
10419;DHT22;5256;48.728;9.140;2023-04-01T01:18:03;6.80;99.90
10419;DHT22;5256;48.728;9.140;2023-04-01T01:26:50;6.80;99.90
10419;DHT22;5256;48.728;9.140;2023-04-01T01:37:29;6.80;99.90
10419;DHT22;5256;48.728;9.140;2023-04-01T01:40:00;6.80;99.90
10419;DHT22;5256;48.728;9.140;2023-04-01T01:42:29;6.80;99.90
10419;DHT22;5256;48.728;9.140;2023-04-01T01:44:56;6.80;99.90
10419;DHT22;5256;48.728;9.140;2023-04-01T01:47:25;6.80;99.90
10419;DHT22;5256;48.728;9.140;2023-04-01T01:49:53;6.90;99.90
10419;DHT22;5256;48.728;9.140;2023-04-01T01:52:21;6.90;99.90
10419;DHT22;5256;48.728;9.140;2023-04-01T01:54:48;6.90;99.90
10419;DHT22;5256;48.728;9.140;2023-04-01T01:57:14;6.80;99.90
10419;DHT22;5256;48.728;9.140;2023-04-01T01:59:42;6.80;99.90
10419;DHT22;5256;48.728;9.140;2023-04-01T02:02:09;6.70;99.90
10419;DHT22;5256;48.728;9.140;2023-04-01T02:04:38;6.80;99.90
10419;DHT22;5256;48.728;9.140;2023-04-01T02:07:09;6.70;99.90
10419;DHT22;5256;48.728;9.140;2023-04-01T02:09:37;6.80;99.90
10419;DHT22;5256;48.728;9.140;2023-04-01T02:12:11;6.80;99.90
10419;DHT22;5256;48.728;9.140;2023-04-01T02:14:59;6.80;99.90
10419;DHT22;5256;48.728;9.140;2023-04-01T02:17:27;6.80;99.90
10419;DHT22;5256;48.728;9.140;2023-04-01T02:20:06;6.80;99.90
10419;DHT22;5256;48.728;9.140;2023-04-01T02:22:39;6.70;99.90
10419;DHT22;5256;48.728;9.140;2023-04-01T02:25:20;6.70;99.90
10419;DHT22;5256;48.728;9.140;2023-04-01T02:27:48;6.60;99.90
10419;DHT22;5256;48.728;9.140;2023-04-01T02:30:17;6.70;99.90
10419;DHT22;5256;48.728;9.140;2023-04-01T02:32:43;6.70;99.90
10419;DHT22;5256;48.728;9.140;2023-04-01T02:35:12;6.60;99.90
10419;DHT22;5256;48.728;9.140;2023-04-01T02:37:39;6.70;99.90
10419;DHT22;5256;48.728;9.140;2023-04-01T02:40:13;6.60;99.90
10419;DHT22;5256;48.728;9.140;2023-04-01T02:42:39;6.60;99.90
10419;DHT22;5256;48.728;9.140;2023-04-01T02:45:06;6.60;99.90
10419;DHT22;5256;48.728;9.140;2023-04-01T02:47:32;6.60;99.90
10419;DHT22;5256;48.728;9.140;2023-04-01T02:49:58;6.50;99.90
10419;DHT22;5256;48.728;9.140;2023-04-01T02:52:30;6.60;99.90
10419;DHT22;5256;48.728;9.140;2023-04-01T02:54:56;6.50;99.90
10419;DHT22;5256;48.728;9.140;2023-04-01T02:57:22;6.50;99.90
10419;DHT22;5256;48.728;9.140;2023-04-01T02:59:48;6.40;99.90
10419;DHT22;5256;48.728;9.140;2023-04-01T03:02:14;6.50;99.90
10419;DHT22;5256;48.728;9.140;2023-04-01T03:04:39;6.40;99.90
10419;DHT22;5256;48.728;9.140;2023-04-01T03:07:05;6.40;99.90
10419;DHT22;5256;48.728;9.140;2023-04-01T03:09:31;6.40;99.90
10419;DHT22;5256;48.728;9.140;2023-04-01T03:11:56;6.30;99.90
10419;DHT22;5256;48.728;9.140;2023-04-01T03:14:22;6.40;99.90
10419;DHT22;5256;48.728;9.140;2023-04-01T03:16:48;6.40;99.90
10419;DHT22;5256;48.728;9.140;2023-04-01T03:19:13;6.40;99.90
10419;DHT22;5256;48.728;9.140;2023-04-01T03:21:39;6.50;99.90
10419;DHT22;5256;48.728;9.140;2023-04-01T03:24:05;6.50;99.90
10419;DHT22;5256;48.728;9.140;2023-04-01T03:26:31;6.40;99.90
10419;DHT22;5256;48.728;9.140;2023-04-01T03:28:57;6.40;99.90
10419;DHT22;5256;48.728;9.140;2023-04-01T03:31:22;6.40;99.90
10419;DHT22;5256;48.728;9.140;2023-04-01T03:33:48;6.40;99.90
10419;DHT22;5256;48.728;9.140;2023-04-01T03:36:14;6.40;99.90
10419;DHT22;5256;48.728;9.140;2023-04-01T03:38:40;6.50;99.90
10419;DHT22;5256;48.728;9.140;2023-04-01T03:41:06;6.40;99.90
10419;DHT22;5256;48.728;9.140;2023-04-01T03:43:32;6.50;99.90
10419;DHT22;5256;48.728;9.140;2023-04-01T03:45:58;6.50;99.90
10419;DHT22;5256;48.728;9.140;2023-04-01T03:48:25;6.50;99.90
10419;DHT22;5256;48.728;9.140;2023-04-01T03:50:51;6.40;99.90
10419;DHT22;5256;48.728;9.140;2023-04-01T03:53:17;6.40;99.90
10419;DHT22;5256;48.728;9.140;2023-04-01T03:55:43;6.40;99.90
10419;DHT22;5256;48.728;9.140;2023-04-01T03:58:09;6.40;99.90
10419;DHT22;5256;48.728;9.140;2023-04-01T04:00:35;6.40;99.90
10419;DHT22;5256;48.728;9.140;2023-04-01T04:03:00;6.30;99.90
10419;DHT22;5256;48.728;9.140;2023-04-01T04:05:26;6.20;99.90
10419;DHT22;5256;48.728;9.140;2023-04-01T04:07:53;6.20;99.90
10419;DHT22;5256;48.728;9.140;2023-04-01T04:10:19;6.10;99.90
10419;DHT22;5256;48.728;9.140;2023-04-01T04:12:44;6.10;99.90
10419;DHT22;5256;48.728;9.140;2023-04-01T04:15:11;6.00;99.90
10419;DHT22;5256;48.728;9.140;2023-04-01T04:17:37;5.90;99.90
10419;DHT22;5256;48.728;9.140;2023-04-01T04:20:03;5.90;99.90
10419;DHT22;5256;48.728;9.140;2023-04-01T04:22:29;5.90;99.90
10419;DHT22;5256;48.728;9.140;2023-04-01T04:24:54;5.90;99.90
10419;DHT22;5256;48.728;9.140;2023-04-01T04:27:20;5.90;99.90
10419;DHT22;5256;48.728;9.140;2023-04-01T04:29:46;5.90;99.90
10419;DHT22;5256;48.728;9.140;2023-04-01T04:32:11;5.90;99.90
10419;DHT22;5256;48.728;9.140;2023-04-01T04:34:37;5.90;99.90
10419;DHT22;5256;48.728;9.140;2023-04-01T04:37:03;5.80;99.90
10419;DHT22;5256;48.728;9.140;2023-04-01T04:39:28;5.80;99.90
10419;DHT22;5256;48.728;9.140;2023-04-01T04:41:54;5.70;99.90
10419;DHT22;5256;48.728;9.140;2023-04-01T04:44:20;5.70;99.90
10419;DHT22;5256;48.728;9.140;2023-04-01T04:46:45;5.70;99.90
10419;DHT22;5256;48.728;9.140;2023-04-01T04:49:11;5.70;99.90
10419;DHT22;5256;48.728;9.140;2023-04-01T04:51:36;5.80;99.90
10419;DHT22;5256;48.728;9.140;2023-04-01T04:54:04;5.80;99.90
10419;DHT22;5256;48.728;9.140;2023-04-01T04:56:30;5.80;99.90
10419;DHT22;5256;48.728;9.140;2023-04-01T04:58:56;5.90;99.90
10419;DHT22;5256;48.728;9.140;2023-04-01T05:01:22;5.90;99.90
10419;DHT22;5256;48.728;9.140;2023-04-01T05:03:47;5.90;99.90
10419;DHT22;5256;48.728;9.140;2023-04-01T05:06:14;5.90;99.90
10419;DHT22;5256;48.728;9.140;2023-04-01T05:08:41;5.90;99.90
10419;DHT22;5256;48.728;9.140;2023-04-01T05:11:11;5.90;99.90
10419;DHT22;5256;48.728;9.140;2023-04-01T05:13:37;6.00;99.90
10419;DHT22;5256;48.728;9.140;2023-04-01T05:16:03;6.10;99.90
10419;DHT22;5256;48.728;9.140;2023-04-01T05:18:28;6.10;99.90
10419;DHT22;5256;48.728;9.140;2023-04-01T05:20:54;6.20;99.90
10419;DHT22;5256;48.728;9.140;2023-04-01T05:23:21;6.20;99.90
10419;DHT22;5256;48.728;9.140;2023-04-01T05:25:51;6.30;99.90
10419;DHT22;5256;48.728;9.140;2023-04-01T05:28:19;6.30;99.90
10419;DHT22;5256;48.728;9.140;2023-04-01T05:30:45;6.40;99.90
10419;DHT22;5256;48.728;9.140;2023-04-01T05:33:11;6.40;99.90
10419;DHT22;5256;48.728;9.140;2023-04-01T05:35:38;6.50;99.90
10419;DHT22;5256;48.728;9.140;2023-04-01T05:38:04;6.60;99.90
10419;DHT22;5256;48.728;9.140;2023-04-01T05:40:30;6.60;99.90
10419;DHT22;5256;48.728;9.140;2023-04-01T05:42:56;6.70;99.90
10419;DHT22;5256;48.728;9.140;2023-04-01T05:45:22;6.80;99.90
10419;DHT22;5256;48.728;9.140;2023-04-01T05:47:47;6.80;99.90
10419;DHT22;5256;48.728;9.140;2023-04-01T05:50:13;6.80;99.90
10419;DHT22;5256;48.728;9.140;2023-04-01T05:52:39;6.90;99.90
10419;DHT22;5256;48.728;9.140;2023-04-01T05:55:05;6.90;99.90
10419;DHT22;5256;48.728;9.140;2023-04-01T05:57:31;6.90;99.90
10419;DHT22;5256;48.728;9.140;2023-04-01T05:59:56;7.00;99.90
10419;DHT22;5256;48.728;9.140;2023-04-01T06:02:22;7.10;99.90
10419;DHT22;5256;48.728;9.140;2023-04-01T06:04:48;7.10;99.90
10419;DHT22;5256;48.728;9.140;2023-04-01T06:07:15;7.20;99.90
10419;DHT22;5256;48.728;9.140;2023-04-01T06:09:42;7.20;99.90
10419;DHT22;5256;48.728;9.140;2023-04-01T06:26:03;7.70;99.90
10419;DHT22;5256;48.728;9.140;2023-04-01T06:37:07;7.80;99.90
10419;DHT22;5256;48.728;9.140;2023-04-01T06:53:29;7.80;99.90
10419;DHT22;5256;48.728;9.140;2023-04-01T06:56:04;7.70;99.90
10419;DHT22;5256;48.728;9.140;2023-04-01T06:58:42;7.80;99.90
10419;DHT22;5256;48.728;9.140;2023-04-01T07:01:16;7.80;99.90
10419;DHT22;5256;48.728;9.140;2023-04-01T07:03:50;7.90;99.90
10419;DHT22;5256;48.728;9.140;2023-04-01T07:06:29;7.90;99.90
10419;DHT22;5256;48.728;9.140;2023-04-01T07:09:02;7.90;99.90
10419;DHT22;5256;48.728;9.140;2023-04-01T07:11:33;8.10;99.90
10419;DHT22;5256;48.728;9.140;2023-04-01T07:14:31;8.10;99.90
10419;DHT22;5256;48.728;9.140;2023-04-01T07:17:08;8.10;99.90
10419;DHT22;5256;48.728;9.140;2023-04-01T07:19:44;8.10;99.90
10419;DHT22;5256;48.728;9.140;2023-04-01T07:22:32;8.20;99.90
10419;DHT22;5256;48.728;9.140;2023-04-01T07:25:05;8.20;99.90
10419;DHT22;5256;48.728;9.140;2023-04-01T07:27:31;8.10;99.90
10419;DHT22;5256;48.728;9.140;2023-04-01T07:29:57;8.10;99.90
10419;DHT22;5256;48.728;9.140;2023-04-01T07:32:39;8.10;99.90
10419;DHT22;5256;48.728;9.140;2023-04-01T07:35:23;8.10;99.90
10419;DHT22;5256;48.728;9.140;2023-04-01T07:43:37;8.00;99.90
10419;DHT22;5256;48.728;9.140;2023-04-01T07:48:57;8.10;99.90
10419;DHT22;5256;48.728;9.140;2023-04-01T07:57:35;8.40;99.90
10419;DHT22;5256;48.728;9.140;2023-04-01T08:00:33;8.40;99.90
10419;DHT22;5256;48.728;9.140;2023-04-01T08:03:05;8.50;99.90
10419;DHT22;5256;48.728;9.140;2023-04-01T08:05:55;8.50;99.90
10419;DHT22;5256;48.728;9.140;2023-04-01T08:16:56;8.70;99.90
10419;DHT22;5256;48.728;9.140;2023-04-01T08:22:20;8.60;99.90
10419;DHT22;5256;48.728;9.140;2023-04-01T08:24:49;8.60;99.90
10419;DHT22;5256;48.728;9.140;2023-04-01T08:27:24;8.70;99.90
10419;DHT22;5256;48.728;9.140;2023-04-01T08:29:57;8.70;99.90
10419;DHT22;5256;48.728;9.140;2023-04-01T08:32:29;8.70;99.90
10419;DHT22;5256;48.728;9.140;2023-04-01T08:37:32;8.70;99.90
10419;DHT22;5256;48.728;9.140;2023-04-01T08:43:09;8.40;99.90
10419;DHT22;5256;48.728;9.140;2023-04-01T08:45:56;8.20;99.90
10419;DHT22;5256;48.728;9.140;2023-04-01T08:51:32;7.90;99.90
10419;DHT22;5256;48.728;9.140;2023-04-01T08:57:37;7.60;99.90
10419;DHT22;5256;48.728;9.140;2023-04-01T09:08:11;7.50;99.90
10419;DHT22;5256;48.728;9.140;2023-04-01T09:13:58;7.60;99.90
10419;DHT22;5256;48.728;9.140;2023-04-01T09:16:49;7.70;99.90
10419;DHT22;5256;48.728;9.140;2023-04-01T09:19:38;7.90;99.90
10419;DHT22;5256;48.728;9.140;2023-04-01T09:22:14;8.20;99.90
10419;DHT22;5256;48.728;9.140;2023-04-01T09:24:57;8.30;99.90
10419;DHT22;5256;48.728;9.140;2023-04-01T09:27:45;8.50;99.90
10419;DHT22;5256;48.728;9.140;2023-04-01T09:30:30;8.80;99.90
10419;DHT22;5256;48.728;9.140;2023-04-01T09:41:21;9.10;99.90
10419;DHT22;5256;48.728;9.140;2023-04-01T09:44:15;8.90;99.90
10419;DHT22;5256;48.728;9.140;2023-04-01T09:47:04;8.60;99.90
10419;DHT22;5256;48.728;9.140;2023-04-01T09:52:55;8.70;99.90
10419;DHT22;5256;48.728;9.140;2023-04-01T10:07:14;8.50;99.90
10419;DHT22;5256;48.728;9.140;2023-04-01T10:15:41;8.60;99.90
10419;DHT22;5256;48.728;9.140;2023-04-01T10:24:03;8.90;99.90
10419;DHT22;5256;48.728;9.140;2023-04-01T10:38:46;9.50;99.90
10419;DHT22;5256;48.728;9.140;2023-04-01T10:41:29;9.60;99.90
10419;DHT22;5256;48.728;9.140;2023-04-01T10:49:47;10.30;99.90
10419;DHT22;5256;48.728;9.140;2023-04-01T11:11:52;9.90;99.90
10419;DHT22;5256;48.728;9.140;2023-04-01T11:17:27;9.80;99.90
10419;DHT22;5256;48.728;9.140;2023-04-01T11:20:14;9.80;99.90
10419;DHT22;5256;48.728;9.140;2023-04-01T11:25:55;10.10;99.90
10419;DHT22;5256;48.728;9.140;2023-04-01T11:33:33;10.30;99.90
10419;DHT22;5256;48.728;9.140;2023-04-01T11:44:19;10.10;99.90
10419;DHT22;5256;48.728;9.140;2023-04-01T11:53:15;10.20;99.90
10419;DHT22;5256;48.728;9.140;2023-04-01T12:01:59;9.90;99.90
10419;DHT22;5256;48.728;9.140;2023-04-01T12:11:08;10.00;99.90
10419;DHT22;5256;48.728;9.140;2023-04-01T12:14:05;10.00;99.90
10419;DHT22;5256;48.728;9.140;2023-04-01T12:25:33;10.00;99.90
10419;DHT22;5256;48.728;9.140;2023-04-01T12:31:04;9.80;99.90
10419;DHT22;5256;48.728;9.140;2023-04-01T12:33:47;9.90;99.90
10419;DHT22;5256;48.728;9.140;2023-04-01T12:47:26;10.50;99.90
10419;DHT22;5256;48.728;9.140;2023-04-01T12:55:46;10.80;99.90
10419;DHT22;5256;48.728;9.140;2023-04-01T13:01:23;11.00;99.90
10419;DHT22;5256;48.728;9.140;2023-04-01T13:15:43;10.60;99.90
10419;DHT22;5256;48.728;9.140;2023-04-01T13:18:38;10.70;99.90
10419;DHT22;5256;48.728;9.140;2023-04-01T13:21:39;10.60;99.90
10419;DHT22;5256;48.728;9.140;2023-04-01T13:24:24;10.60;99.90
10419;DHT22;5256;48.728;9.140;2023-04-01T13:30:07;10.50;99.90
10419;DHT22;5256;48.728;9.140;2023-04-01T13:32:59;10.50;99.90
10419;DHT22;5256;48.728;9.140;2023-04-01T13:39:09;10.50;99.90
10419;DHT22;5256;48.728;9.140;2023-04-01T13:48:14;10.40;99.90
10419;DHT22;5256;48.728;9.140;2023-04-01T13:50:23;10.60;99.90
10419;DHT22;5256;48.728;9.140;2023-04-01T13:58:38;10.50;99.90
10419;DHT22;5256;48.728;9.140;2023-04-01T14:03:44;10.50;99.90
10419;DHT22;5256;48.728;9.140;2023-04-01T14:06:16;10.70;99.90
10419;DHT22;5256;48.728;9.140;2023-04-01T14:20:10;10.60;99.90
10419;DHT22;5256;48.728;9.140;2023-04-01T14:31:31;10.10;99.90
10419;DHT22;5256;48.728;9.140;2023-04-01T14:47:47;10.20;99.90
10419;DHT22;5256;48.728;9.140;2023-04-01T14:50:17;10.10;99.90
10419;DHT22;5256;48.728;9.140;2023-04-01T15:03:25;10.30;99.90
10419;DHT22;5256;48.728;9.140;2023-04-01T15:08:58;10.30;99.90
10419;DHT22;5256;48.728;9.140;2023-04-01T15:17:22;10.10;99.90
10419;DHT22;5256;48.728;9.140;2023-04-01T15:31:03;9.90;99.90
10419;DHT22;5256;48.728;9.140;2023-04-01T15:33:43;10.00;99.90
10419;DHT22;5256;48.728;9.140;2023-04-01T15:39:10;10.00;99.90
10419;DHT22;5256;48.728;9.140;2023-04-01T15:42:10;10.10;99.90
10419;DHT22;5256;48.728;9.140;2023-04-01T15:55:26;9.90;99.90
10419;DHT22;5256;48.728;9.140;2023-04-01T16:01:03;9.90;99.90
10419;DHT22;5256;48.728;9.140;2023-04-01T16:06:48;9.90;99.90
10419;DHT22;5256;48.728;9.140;2023-04-01T16:09:48;9.80;99.90
10419;DHT22;5256;48.728;9.140;2023-04-01T16:15:17;9.50;99.90
10419;DHT22;5256;48.728;9.140;2023-04-01T16:20:25;9.40;99.90
10419;DHT22;5256;48.728;9.140;2023-04-01T16:23:10;9.30;99.90
10419;DHT22;5256;48.728;9.140;2023-04-01T16:25:49;9.30;99.90
10419;DHT22;5256;48.728;9.140;2023-04-01T16:36:28;9.40;99.90
10419;DHT22;5256;48.728;9.140;2023-04-01T16:41:38;9.40;99.90
10419;DHT22;5256;48.728;9.140;2023-04-01T16:44:25;9.40;99.90
10419;DHT22;5256;48.728;9.140;2023-04-01T16:46:57;9.40;99.90
10419;DHT22;5256;48.728;9.140;2023-04-01T16:49:36;9.40;99.90
10419;DHT22;5256;48.728;9.140;2023-04-01T16:59:46;9.40;99.90
10419;DHT22;5256;48.728;9.140;2023-04-01T17:02:15;9.50;99.90
10419;DHT22;5256;48.728;9.140;2023-04-01T17:04:49;9.50;99.90
10419;DHT22;5256;48.728;9.140;2023-04-01T17:10:16;9.40;99.90
10419;DHT22;5256;48.728;9.140;2023-04-01T17:13:18;9.40;99.90
10419;DHT22;5256;48.728;9.140;2023-04-01T17:18:46;9.40;99.90
10419;DHT22;5256;48.728;9.140;2023-04-01T17:21:34;9.30;99.90
10419;DHT22;5256;48.728;9.140;2023-04-01T17:24:16;9.30;99.90
10419;DHT22;5256;48.728;9.140;2023-04-01T17:27:02;9.30;99.90
10419;DHT22;5256;48.728;9.140;2023-04-01T17:32:58;9.20;99.90
10419;DHT22;5256;48.728;9.140;2023-04-01T17:43:52;9.10;99.90
10419;DHT22;5256;48.728;9.140;2023-04-01T17:49:28;9.10;99.90
10419;DHT22;5256;48.728;9.140;2023-04-01T17:57:11;9.00;99.90
10419;DHT22;5256;48.728;9.140;2023-04-01T18:02:54;9.00;99.90
10419;DHT22;5256;48.728;9.140;2023-04-01T18:05:30;8.90;99.90
10419;DHT22;5256;48.728;9.140;2023-04-01T18:08:06;8.90;99.90
10419;DHT22;5256;48.728;9.140;2023-04-01T18:16:24;8.70;99.90
10419;DHT22;5256;48.728;9.140;2023-04-01T18:19:39;8.60;99.90
10419;DHT22;5256;48.728;9.140;2023-04-01T18:40:15;7.80;99.90
10419;DHT22;5256;48.728;9.140;2023-04-01T18:51:57;7.50;99.90
10419;DHT22;5256;48.728;9.140;2023-04-01T18:54:41;7.40;99.90
10419;DHT22;5256;48.728;9.140;2023-04-01T18:57:13;7.40;99.90
10419;DHT22;5256;48.728;9.140;2023-04-01T18:59:40;7.40;99.90
10419;DHT22;5256;48.728;9.140;2023-04-01T19:02:34;7.40;99.90
10419;DHT22;5256;48.728;9.140;2023-04-01T19:05:07;7.30;99.90
10419;DHT22;5256;48.728;9.140;2023-04-01T19:16:17;7.10;99.90
10419;DHT22;5256;48.728;9.140;2023-04-01T19:21:41;7.10;99.90
10419;DHT22;5256;48.728;9.140;2023-04-01T19:27:29;7.10;99.90
10419;DHT22;5256;48.728;9.140;2023-04-01T19:30:31;7.10;99.90
10419;DHT22;5256;48.728;9.140;2023-04-01T19:36:08;7.00;99.90
10419;DHT22;5256;48.728;9.140;2023-04-01T19:38:53;6.90;99.90
10419;DHT22;5256;48.728;9.140;2023-04-01T19:41:50;6.90;99.90
10419;DHT22;5256;48.728;9.140;2023-04-01T19:50:06;7.00;99.90
10419;DHT22;5256;48.728;9.140;2023-04-01T19:52:41;7.00;99.90
10419;DHT22;5256;48.728;9.140;2023-04-01T19:58:05;7.10;99.90
10419;DHT22;5256;48.728;9.140;2023-04-01T20:00:52;7.00;99.90
10419;DHT22;5256;48.728;9.140;2023-04-01T20:03:43;7.10;99.90
10419;DHT22;5256;48.728;9.140;2023-04-01T20:09:35;7.10;99.90
10419;DHT22;5256;48.728;9.140;2023-04-01T20:17:52;7.10;99.90
10419;DHT22;5256;48.728;9.140;2023-04-01T20:20:21;7.00;99.90
10419;DHT22;5256;48.728;9.140;2023-04-01T20:25:48;6.90;99.90
10419;DHT22;5256;48.728;9.140;2023-04-01T20:33:43;6.70;99.90
10419;DHT22;5256;48.728;9.140;2023-04-01T20:36:43;6.70;99.90
10419;DHT22;5256;48.728;9.140;2023-04-01T20:42:29;6.80;99.90
10419;DHT22;5256;48.728;9.140;2023-04-01T20:51:16;6.80;99.90
10419;DHT22;5256;48.728;9.140;2023-04-01T20:56:23;7.00;99.90
10419;DHT22;5256;48.728;9.140;2023-04-01T20:59:58;7.00;99.90
10419;DHT22;5256;48.728;9.140;2023-04-01T21:02:14;7.00;99.90
10419;DHT22;5256;48.728;9.140;2023-04-01T21:12:53;7.00;99.90
10419;DHT22;5256;48.728;9.140;2023-04-01T21:18:53;7.00;99.90
10419;DHT22;5256;48.728;9.140;2023-04-01T21:27:39;6.90;99.90
10419;DHT22;5256;48.728;9.140;2023-04-01T21:41:16;6.90;99.90
10419;DHT22;5256;48.728;9.140;2023-04-01T21:50:19;7.10;99.90
10419;DHT22;5256;48.728;9.140;2023-04-01T22:06:39;7.20;99.90
10419;DHT22;5256;48.728;9.140;2023-04-01T22:09:52;7.20;99.90
10419;DHT22;5256;48.728;9.140;2023-04-01T22:12:40;7.20;99.90
10419;DHT22;5256;48.728;9.140;2023-04-01T22:18:13;7.20;99.90
10419;DHT22;5256;48.728;9.140;2023-04-01T22:20:58;7.10;99.90
10419;DHT22;5256;48.728;9.140;2023-04-01T22:26:32;7.20;99.90
10419;DHT22;5256;48.728;9.140;2023-04-01T22:34:41;7.10;99.90
10419;DHT22;5256;48.728;9.140;2023-04-01T22:37:35;7.10;99.90
10419;DHT22;5256;48.728;9.140;2023-04-01T22:40:25;7.10;99.90
10419;DHT22;5256;48.728;9.140;2023-04-01T22:42:57;7.20;99.90
10419;DHT22;5256;48.728;9.140;2023-04-01T22:45:43;7.20;99.90
10419;DHT22;5256;48.728;9.140;2023-04-01T22:48:20;7.20;99.90
10419;DHT22;5256;48.728;9.140;2023-04-01T22:51:17;7.20;99.90
10419;DHT22;5256;48.728;9.140;2023-04-01T22:56:35;7.10;99.90
10419;DHT22;5256;48.728;9.140;2023-04-01T22:59:31;7.10;99.90
10419;DHT22;5256;48.728;9.140;2023-04-01T23:02:06;7.00;99.90
10419;DHT22;5256;48.728;9.140;2023-04-01T23:04:38;6.90;99.90
10419;DHT22;5256;48.728;9.140;2023-04-01T23:07:28;6.80;99.90
10419;DHT22;5256;48.728;9.140;2023-04-01T23:09:58;6.70;99.90
10419;DHT22;5256;48.728;9.140;2023-04-01T23:12:25;6.70;99.90
10419;DHT22;5256;48.728;9.140;2023-04-01T23:15:01;6.60;99.90
10419;DHT22;5256;48.728;9.140;2023-04-01T23:17:51;6.50;99.90
10419;DHT22;5256;48.728;9.140;2023-04-01T23:23:41;6.40;99.90
10419;DHT22;5256;48.728;9.140;2023-04-01T23:26:24;6.50;99.90
10419;DHT22;5256;48.728;9.140;2023-04-01T23:28:53;6.40;99.90
10419;DHT22;5256;48.728;9.140;2023-04-01T23:31:45;6.50;99.90
10419;DHT22;5256;48.728;9.140;2023-04-01T23:36:51;6.50;99.90
10419;DHT22;5256;48.728;9.140;2023-04-01T23:39:21;6.40;99.90
10419;DHT22;5256;48.728;9.140;2023-04-01T23:41:48;6.30;99.90
10419;DHT22;5256;48.728;9.140;2023-04-01T23:44:16;6.30;99.90
10419;DHT22;5256;48.728;9.140;2023-04-01T23:46:44;6.20;99.90
10419;DHT22;5256;48.728;9.140;2023-04-01T23:49:24;6.10;99.90
10419;DHT22;5256;48.728;9.140;2023-04-01T23:51:57;6.00;99.90
10419;DHT22;5256;48.728;9.140;2023-04-01T23:54:30;6.00;99.90
10419;DHT22;5256;48.728;9.140;2023-04-01T23:56:57;5.90;99.90
10419;DHT22;5256;48.728;9.140;2023-04-01T23:59:32;5.90;99.90
